createdAt,value
2023-01-21T18:48:26.034Z,1.43
2023-01-21T18:49:25.946Z,1.38
2023-01-21T18:50:25.856Z,1.30
2023-01-21T18:51:25.955Z,1.34
2023-01-21T18:52:25.732Z,1.27
2023-01-21T18:53:25.683Z,1.38
2023-01-21T18:54:25.627Z,1.31
2023-01-21T18:55:25.572Z,1.28
2023-01-21T18:56:25.545Z,1.39
2023-01-21T18:57:25.470Z,1.27
2023-01-21T18:58:25.794Z,1.34
2023-01-21T18:59:25.409Z,1.38
2023-01-21T19:00:25.353Z,1.28
2023-01-21T19:01:25.365Z,1.28
2023-01-21T19:02:25.350Z,1.39
2023-01-21T19:03:25.222Z,1.34
2023-01-21T19:04:25.125Z,1.38
2023-01-21T19:05:25.087Z,1.45
2023-01-21T19:06:25.079Z,1.49
2023-01-21T19:07:25.120Z,1.40
2023-01-21T19:08:24.998Z,1.46
2023-01-21T19:09:24.911Z,1.43
2023-01-21T19:10:24.835Z,1.39
2023-01-21T19:11:24.757Z,1.49
2023-01-21T19:12:24.712Z,1.45
2023-01-21T19:13:24.660Z,1.49
2023-01-21T19:14:24.604Z,1.50
2023-01-21T19:15:24.557Z,1.58
2023-01-21T19:16:24.690Z,1.53
2023-01-21T19:17:24.500Z,1.61
2023-01-21T19:18:24.405Z,1.53
2023-01-21T19:19:24.437Z,1.52
2023-01-21T19:20:24.404Z,1.57
2023-01-21T19:21:24.296Z,1.60
2023-01-21T19:22:24.256Z,1.58
2023-01-21T19:23:24.239Z,1.58
2023-01-21T19:24:24.110Z,1.60
2023-01-21T19:25:24.101Z,1.60
2023-01-21T19:27:07.384Z,1.61
2023-01-21T19:28:07.451Z,1.67
2023-01-21T19:29:07.287Z,1.68
2023-01-21T19:30:07.297Z,1.68
2023-01-21T19:31:07.326Z,1.78
2023-01-21T19:32:07.218Z,1.76
2023-01-21T19:33:07.094Z,1.68
2023-01-21T19:34:07.055Z,1.78
2023-01-21T19:35:06.991Z,1.68
2023-01-21T19:36:07.032Z,1.75
2023-01-21T19:37:06.891Z,1.74
2023-01-21T19:38:06.906Z,1.75
2023-01-21T19:39:06.796Z,1.81
2023-01-21T19:40:06.754Z,1.79
2023-01-21T19:41:06.752Z,1.86
2023-01-21T19:42:08.722Z,1.85
2023-01-21T19:43:06.690Z,1.85
2023-01-21T19:44:06.552Z,1.88
2023-01-21T19:45:06.511Z,1.92
2023-01-21T19:46:06.474Z,1.86
2023-01-21T19:47:06.407Z,1.95
2023-01-21T19:48:06.354Z,1.97
2023-01-21T19:49:06.342Z,1.85
2023-01-21T19:50:06.260Z,1.95
2023-01-21T19:51:06.439Z,1.93
2023-01-21T19:52:06.183Z,2.00
2023-01-21T19:53:06.125Z,1.89
2023-01-21T19:54:06.113Z,1.88
2023-01-21T19:55:06.018Z,1.92
2023-01-21T19:56:06.017Z,1.95
2023-01-21T19:57:05.915Z,1.98
2023-01-21T19:58:05.887Z,1.97
2023-01-21T19:59:05.814Z,1.92
2023-01-21T20:00:05.767Z,1.95
2023-01-21T20:01:05.822Z,2.08
2023-01-21T20:02:05.766Z,1.98
2023-01-21T20:03:05.624Z,2.08
2023-01-21T20:04:05.573Z,2.01
2023-01-21T20:05:05.531Z,2.05
2023-01-21T20:06:05.528Z,2.00
2023-01-21T20:07:05.426Z,2.08
2023-01-21T20:08:05.402Z,2.04
2023-01-21T20:09:05.427Z,1.97
2023-01-21T20:10:05.309Z,2.00
2023-01-21T20:11:05.233Z,2.07
2023-01-21T20:12:06.144Z,2.12
2023-01-21T20:13:05.191Z,1.98
2023-01-21T20:14:05.088Z,1.97
2023-01-21T20:15:05.034Z,2.19
2023-01-21T20:16:05.037Z,1.97
2023-01-21T20:17:04.947Z,2.00
2023-01-21T20:18:04.896Z,2.05
2023-01-21T20:19:04.844Z,2.05
2023-01-21T20:20:04.904Z,1.98
2023-01-21T20:21:04.739Z,2.05
2023-01-21T20:22:04.706Z,2.07
2023-01-21T20:23:04.640Z,1.97
2023-01-21T20:24:04.670Z,2.04
2023-01-21T20:25:04.574Z,2.05
2023-01-21T20:26:04.610Z,2.04
2023-01-21T20:27:05.849Z,2.10
2023-01-21T20:28:04.464Z,2.07
2023-01-21T20:30:02.652Z,2.07
2023-01-21T20:30:47.727Z,2.12
2023-01-21T20:31:47.694Z,2.08
2023-01-21T20:32:47.603Z,2.10
2023-01-21T20:33:47.537Z,2.08
2023-01-21T20:34:47.484Z,2.10
2023-01-21T20:36:47.387Z,2.10
2023-01-21T20:37:47.336Z,2.01
2023-01-21T20:38:47.475Z,2.05
2023-01-21T20:39:47.260Z,2.05
2023-01-21T20:40:47.193Z,2.08
2023-01-21T20:41:47.143Z,2.12
2023-01-21T20:42:47.091Z,2.05
2023-01-21T20:43:47.050Z,2.03
2023-01-21T20:44:46.996Z,2.01
2023-01-21T20:45:46.998Z,2.15
2023-01-21T20:46:46.895Z,2.04
2023-01-21T20:47:50.191Z,2.07
2023-01-21T20:48:46.801Z,2.03
2023-01-21T20:49:46.969Z,2.05
2023-01-21T20:50:46.841Z,2.07
2023-01-21T20:51:46.652Z,2.08
2023-01-21T20:52:46.602Z,2.10
2023-01-21T20:53:46.560Z,2.08
2023-01-21T20:54:46.519Z,2.08
2023-01-21T20:55:46.483Z,2.00
2023-01-21T20:56:46.406Z,2.00
2023-01-21T20:57:46.361Z,2.03
2023-01-21T20:58:46.307Z,2.12
2023-01-21T20:59:46.276Z,2.16
2023-01-21T21:00:46.238Z,2.10
2023-01-21T21:01:46.165Z,2.03
2023-01-21T21:02:46.120Z,2.04
2023-01-21T21:03:46.066Z,2.05
2023-01-21T21:04:46.021Z,2.07
2023-01-21T21:05:45.972Z,2.07
2023-01-21T21:06:45.976Z,2.05
2023-01-21T21:07:45.870Z,2.08
2023-01-21T21:08:45.831Z,2.05
2023-01-21T21:09:45.771Z,2.04
2023-01-21T21:10:45.724Z,1.98
2023-01-21T21:11:45.691Z,2.05
2023-01-21T21:12:45.625Z,2.04
2023-01-21T21:13:45.579Z,2.04
2023-01-21T21:14:45.532Z,2.10
2023-01-21T21:15:46.715Z,2.04
2023-01-21T21:16:45.531Z,2.00
2023-01-21T21:17:45.380Z,2.03
2023-01-21T21:18:45.335Z,2.00
2023-01-21T21:19:45.283Z,2.00
2023-01-21T21:20:45.235Z,2.00
2023-01-21T21:21:45.185Z,2.05
2023-01-21T21:22:45.135Z,2.05
2023-01-21T21:23:45.086Z,2.15
2023-01-21T21:24:45.039Z,1.98
2023-01-21T21:25:44.996Z,2.00
2023-01-21T21:26:44.944Z,2.14
2023-01-21T21:27:44.924Z,2.10
2023-01-21T21:28:44.845Z,2.19
2023-01-21T21:29:44.812Z,2.12
2023-01-21T21:30:44.840Z,2.05
2023-01-21T21:31:44.763Z,1.97
2023-01-21T21:32:44.656Z,2.05
2023-01-21T21:33:44.602Z,2.07
2023-01-21T21:34:47.169Z,1.98
2023-01-21T21:38:10.204Z,2.03
2023-01-21T21:39:10.155Z,1.97
2023-01-21T21:40:10.114Z,2.10
2023-01-21T21:41:10.063Z,2.08
2023-01-21T21:42:10.006Z,2.04
2023-01-21T21:43:09.985Z,2.10
2023-01-21T21:44:09.927Z,2.08
2023-01-21T21:45:09.864Z,2.07
2023-01-21T21:46:09.851Z,1.93
2023-01-21T21:47:09.766Z,2.01
2023-01-21T21:48:09.718Z,2.03
2023-01-21T21:49:09.666Z,1.93
2023-01-21T21:50:09.627Z,2.05
2023-01-21T21:51:09.642Z,1.98
2023-01-21T21:52:09.519Z,2.03
2023-01-21T21:53:09.474Z,2.01
2023-01-21T21:54:09.420Z,2.14
2023-01-21T21:55:09.381Z,2.00
2023-01-21T21:56:09.325Z,2.00
2023-01-21T21:57:09.275Z,2.05
2023-01-21T21:58:09.225Z,1.97
2023-01-21T21:59:09.200Z,2.07
2023-01-21T22:00:09.130Z,2.04
2023-01-21T22:01:09.117Z,2.05
2023-01-21T22:02:09.069Z,2.01
2023-01-21T22:03:08.980Z,2.07
2023-01-21T22:04:08.947Z,2.04
2023-01-21T22:05:08.921Z,2.04
2023-01-21T22:06:08.830Z,2.03
2023-01-21T22:07:08.792Z,2.04
2023-01-21T22:08:08.735Z,2.04
2023-01-21T22:09:08.713Z,2.03
2023-01-21T22:10:08.639Z,2.08
2023-01-21T22:11:08.590Z,2.05
2023-01-21T22:12:08.539Z,2.07
